Nearby METAR Reports

 

LEVC - Valencia (civ/Mi, Spain
Distacia desde Piles: NO 69km
Actu.: 17/11/2017 22:00
Smoke, Parcialmente nuboso
Smoke, Parcialmente nuboso
 Viento del O
Viento: O 6 km/h
Temperatura: 9°C
Rocío: 5°C
Humedad: 76%
Barómetro: 1020 hPa
Resumen: Smoke
Clouds: Parcialmente nuboso
Visibility: 4 km
2017/11/17 21:00 LEVC 172100Z 27003KT 3800 FU NSC 09/05 Q1020 TEMPO 2500
LEAL - Alicante/El Alte, Spain
Distacia desde Piles: SSO 94km
Actu.: 17/11/2017 22:00
Despejado
Despejado
 Viento del ONO
Viento: ONO 7 km/h
Temperatura: 13°C
Rocío: 11°C
Humedad: 88%
Barómetro: 1020 hPa
Resumen: Despejado
Visibility: greater than 10 km
2017/11/17 21:00 LEAL 172100Z 29004KT 250V310 CAVOK 13/11 Q1020 NOSIG
 
LEIB - Ibiza/Es Codola, Spain
Distacia desde Piles: E 119km
Actu.: 17/11/2017 22:00
Few Clouds
Few Clouds
 Viento del calm
Viento: Calma
Temperatura: 11°C
Rocío: 9°C
Humedad: 88%
Barómetro: 1020 hPa
Clouds: Few Clouds
Visibility: 10 km
Cloud details: Few Clouds 914 m
2017/11/17 21:00 LEIB 172100Z 00000KT 9999 FEW030 11/09 Q1020 NOSIG
LELC - San Javier(Mil/C, Spain
Distacia desde Piles: SSO 154km
Actu.: 17/11/2017 22:00
Despejado
Despejado
 Viento del ONO
Viento: ONO 9 km/h
Temperatura: 10°C
Wind Chill: 9°C
Rocío: 9°C
Humedad: 94%
Barómetro: 1020 hPa
Resumen: Despejado
Visibility: greater than 10 km
2017/11/17 21:00 LELC 172100Z 30005KT CAVOK 10/09 Q1020 NOSIG
 
LERI - Alcantarilla(Sp-, Spain
Distacia desde Piles: SO 158km
Actu.: 17/11/2017 19:00
NOT Current
Despejado
Despejado
 Viento del OSO
Viento: OSO 9 km/h
Temperatura: 15°C
Rocío: 11°C
Humedad: 77%
Barómetro: 1019 hPa
Resumen: Despejado
Visibility: greater than 10 km
2017/11/17 18:00 LERI 171800Z 24005KT CAVOK 15/11 Q1019 NOSIG
LEAB - Albacete (civ/Mi, Spain
Distacia desde Piles: O 160km
Actu.: 17/11/2017 22:00
Despejado
Despejado
 Viento del S
Viento: S 7 km/h
Temperatura: 5°C
Wind Chill: 3°C
Rocío: -4°C
Humedad: 53%
Barómetro: 1021 hPa
Resumen: Despejado
Visibility: greater than 10 km
2017/11/17 21:00 LEAB 172100Z 19004KT 160V220 CAVOK 05/M04 Q1021 NOSIG